Time;durP1;ratioP1;P1;durP2;ratioP2;P2;SDS_P1;SDS_P2;PMS_P1;PMS_P2;Temp;Humidity;BMP_temperature;BMP_pressure;BME280_temperature;BME280_humidity;BME280_pressure;Samples;Min_cycle;Max_cycle;Signal;HPM_P1;HPM_P2
2023/07/14 00:00:08;;;;;;;16.92;4.40;;;;;;;;;;5034317;28;20021;-56
2023/07/14 00:02:34;;;;;;;37.88;21.13;;;;;;;;;;5033328;28;20304;-58
2023/07/14 00:05:03;;;;;;;17.83;4.97;;;;;;;;;;5034801;28;20209;-58
2023/07/14 00:07:28;;;;;;;157.02;139.63;;;;;;;;;;5031669;28;20052;-57
2023/07/14 00:09:53;;;;;;;16.57;4.43;;;;;;;;;;5034708;28;20025;-56
2023/07/14 00:12:18;;;;;;;139.37;126.50;;;;;;;;;;5034151;28;20329;-56
2023/07/14 00:14:44;;;;;;;45.80;34.33;;;;;;;;;;5033709;28;20302;-57
2023/07/14 00:17:12;;;;;;;17.00;4.38;;;;;;;;;;5033284;28;20635;-55
2023/07/14 00:19:38;;;;;;;37.13;17.50;;;;;;;;;;5032965;28;20382;-56
2023/07/14 00:22:14;;;;;;;41.08;25.00;;;;;;;;;;5033284;28;20036;-58
2023/07/14 00:24:40;;;;;;;107.40;78.47;;;;;;;;;;5032381;28;20066;-56
2023/07/14 00:27:09;;;;;;;16.48;4.60;;;;;;;;;;5033102;28;20406;-57
2023/07/14 00:29:38;;;;;;;24.33;5.45;;;;;;;;;;5032244;28;20195;-57
2023/07/14 00:32:10;;;;;;;15.00;4.05;;;;;;;;;;5033303;28;20047;-59
2023/07/14 00:34:35;;;;;;;27.48;5.78;;;;;;;;;;5032138;28;20035;-58
2023/07/14 00:37:00;;;;;;;17.23;5.07;;;;;;;;;;5031419;28;20037;-57
2023/07/14 00:39:26;;;;;;;23.03;5.27;;;;;;;;;;5031075;28;20261;-57
2023/07/14 00:41:52;;;;;;;15.13;4.05;;;;;;;;;;5032662;28;20271;-56
2023/07/14 00:44:17;;;;;;;16.40;4.32;;;;;;;;;;5034171;28;20398;-56
2023/07/14 00:46:44;;;;;;;22.85;7.53;;;;;;;;;;5010150;28;20231;-58
2023/07/14 00:49:20;;;;;;;32.33;10.57;;;;;;;;;;5034055;28;20068;-56
2023/07/14 00:51:45;;;;;;;46.60;32.80;;;;;;;;;;5030921;28;20025;-57
2023/07/14 00:54:27;;;;;;;106.68;82.63;;;;;;;;;;5033699;28;20025;-57
2023/07/14 00:56:53;;;;;;;18.05;6.20;;;;;;;;;;5031945;28;20143;-58
2023/07/14 00:59:19;;;;;;;30.08;15.02;;;;;;;;;;5033761;28;20091;-58
2023/07/14 01:02:03;;;;;;;17.38;4.70;;;;;;;;;;5030782;28;20029;-58
2023/07/14 01:04:29;;;;;;;18.17;5.07;;;;;;;;;;5031761;28;20028;-58
2023/07/14 01:06:54;;;;;;;15.30;4.30;;;;;;;;;;5032587;28;20033;-57
2023/07/14 01:09:19;;;;;;;14.53;5.90;;;;;;;;;;5033670;28;20250;-56
2023/07/14 01:11:47;;;;;;;12.00;3.90;;;;;;;;;;5031062;28;20279;-57
2023/07/14 01:14:21;;;;;;;14.02;4.05;;;;;;;;;;5033331;28;20021;-56
2023/07/14 01:16:47;;;;;;;23.48;18.70;;;;;;;;;;5031126;28;20594;-57
2023/07/14 01:19:32;;;;;;;17.35;4.72;;;;;;;;;;5032793;28;20036;-57
2023/07/14 01:22:13;;;;;;;13.23;4.18;;;;;;;;;;5033166;28;20035;-58
2023/07/14 01:24:45;;;;;;;22.05;5.40;;;;;;;;;;5031600;28;20025;-58
2023/07/14 01:27:10;;;;;;;;;;;;;;;;;;5032816;28;20458;-56
2023/07/14 01:29:36;;;;;;;23.03;5.70;;;;;;;;;;5031373;28;20353;-59
2023/07/14 01:32:01;;;;;;;14.98;4.20;;;;;;;;;;5032834;28;20112;-57
2023/07/14 01:34:28;;;;;;;14.43;4.22;;;;;;;;;;5032155;28;20486;-57
2023/07/14 01:36:58;;;;;;;14.98;4.25;;;;;;;;;;5032142;28;20052;-57
2023/07/14 01:39:23;;;;;;;16.70;5.25;;;;;;;;;;5032647;28;20385;-58
2023/07/14 01:41:49;;;;;;;12.82;4.43;;;;;;;;;;5030898;28;20035;-59
2023/07/14 01:44:18;;;;;;;16.33;4.53;;;;;;;;;;5031773;28;20528;-58
2023/07/14 01:46:45;;;;;;;21.23;5.38;;;;;;;;;;5030565;28;20438;-57
2023/07/14 01:49:20;;;;;;;15.70;4.32;;;;;;;;;;5032399;28;20561;-56
2023/07/14 01:51:48;;;;;;;14.10;4.35;;;;;;;;;;5031114;28;20469;-57
2023/07/14 01:54:26;;;;;;;11.63;3.78;;;;;;;;;;5033546;28;20462;-56
2023/07/14 01:56:52;;;;;;;20.73;4.65;;;;;;;;;;5031648;28;20568;-57
2023/07/14 01:59:20;;;;;;;15.38;4.50;;;;;;;;;;5032763;28;20037;-58
2023/07/14 02:01:45;;;;;;;30.88;13.00;;;;;;;;;;5030438;28;20454;-56
2023/07/14 02:04:22;;;;;;;13.90;4.63;;;;;;;;;;5033316;28;20599;-58
2023/07/14 02:06:48;;;;;;;11.77;3.92;;;;;;;;;;5030486;28;20102;-58
2023/07/14 02:09:18;;;;;;;13.15;4.30;;;;;;;;;;5035071;28;20203;-58
2023/07/14 02:11:47;;;;;;;20.67;5.28;;;;;;;;;;5035196;28;20209;-56
2023/07/14 02:14:15;;;;;;;27.80;17.70;;;;;;;;;;5036741;28;20020;-58
2023/07/14 02:16:40;;;;;;;18.67;5.03;;;;;;;;;;5033862;28;20037;-57
2023/07/14 02:19:10;;;;;;;15.75;4.63;;;;;;;;;;5035705;28;20468;-58
2023/07/14 02:21:37;;;;;;;17.35;4.90;;;;;;;;;;5034568;28;20036;-57
2023/07/14 02:24:04;;;;;;;15.02;4.55;;;;;;;;;;5037142;28;20070;-58
2023/07/14 02:26:29;;;;;;;31.05;21.48;;;;;;;;;;5034484;28;20021;-56
2023/07/14 02:28:55;;;;;;;17.02;3.95;;;;;;;;;;5035714;28;20017;-58
2023/07/14 02:31:26;;;;;;;14.40;4.43;;;;;;;;;;5036018;28;20025;-57
2023/07/14 02:33:52;;;;;;;15.60;4.70;;;;;;;;;;5035227;28;20056;-56
2023/07/14 02:36:34;;;;;;;15.43;4.30;;;;;;;;;;5035685;28;20566;-56
2023/07/14 02:39:01;;;;;;;13.30;4.13;;;;;;;;;;5036173;28;20029;-57
2023/07/14 02:41:28;;;;;;;16.17;4.90;;;;;;;;;;5034540;28;20032;-58
2023/07/14 02:43:56;;;;;;;14.25;4.55;;;;;;;;;;5034712;28;20163;-58
2023/07/14 02:46:48;;;;;;;16.00;4.15;;;;;;;;;;5031287;28;20510;-58
2023/07/14 02:49:14;;;;;;;14.70;4.30;;;;;;;;;;5032920;28;20071;-58
2023/07/14 02:51:39;;;;;;;25.65;6.32;;;;;;;;;;5033195;28;20174;-57
2023/07/14 02:54:05;;;;;;;16.50;4.40;;;;;;;;;;5035318;28;20059;-57
2023/07/14 02:56:30;;;;;;;14.55;4.43;;;;;;;;;;5033942;28;20279;-58
2023/07/14 02:58:56;;;;;;;15.73;4.60;;;;;;;;;;5035917;28;20021;-58
2023/07/14 03:01:21;;;;;;;12.10;4.05;;;;;;;;;;5035098;28;20031;-57
2023/07/14 03:03:47;;;;;;;20.13;5.17;;;;;;;;;;5034167;28;20035;-57
2023/07/14 03:06:13;;;;;;;15.00;4.47;;;;;;;;;;5034170;28;20764;-58
2023/07/14 03:08:38;;;;;;;18.58;5.15;;;;;;;;;;5034870;28;20033;-58
2023/07/14 03:11:04;;;;;;;15.07;4.43;;;;;;;;;;5034961;28;20036;-58
2023/07/14 03:13:29;;;;;;;14.77;4.13;;;;;;;;;;5035390;28;20368;-56
2023/07/14 03:15:54;;;;;;;13.97;4.13;;;;;;;;;;5034069;28;20444;-56
2023/07/14 03:18:19;;;;;;;12.43;4.00;;;;;;;;;;5035245;28;20267;-57
2023/07/14 03:20:45;;;;;;;26.77;5.73;;;;;;;;;;5032417;28;20816;-57
2023/07/14 03:23:10;;;;;;;15.57;4.60;;;;;;;;;;5016010;28;20335;-57
2023/07/14 03:25:35;;;;;;;21.27;5.33;;;;;;;;;;5032842;28;20826;-57
2023/07/14 03:28:01;;;;;;;16.10;4.35;;;;;;;;;;5034250;28;20946;-57
2023/07/14 03:30:27;;;;;;;13.95;4.25;;;;;;;;;;5017906;28;20040;-56
2023/07/14 03:32:52;;;;;;;11.05;4.03;;;;;;;;;;5033532;28;20017;-56
2023/07/14 03:35:19;;;;;;;14.23;4.43;;;;;;;;;;5035193;28;20021;-57
2023/07/14 03:37:44;;;;;;;19.48;5.38;;;;;;;;;;5033103;28;20312;-57
2023/07/14 03:40:10;;;;;;;15.35;4.68;;;;;;;;;;5014704;28;20025;-57
2023/07/14 03:42:36;;;;;;;18.65;5.22;;;;;;;;;;5031723;28;20382;-55
2023/07/14 03:45:02;;;;;;;21.73;5.10;;;;;;;;;;5034674;28;20410;-58
2023/07/14 03:47:27;;;;;;;13.25;4.22;;;;;;;;;;5033836;28;20514;-58
2023/07/14 03:49:52;;;;;;;14.25;4.15;;;;;;;;;;5033339;28;20422;-57
2023/07/14 03:52:17;;;;;;;12.75;4.38;;;;;;;;;;5034999;28;20035;-56
2023/07/14 03:54:43;;;;;;;23.97;5.60;;;;;;;;;;5033337;28;20439;-59
2023/07/14 03:57:08;;;;;;;14.20;4.25;;;;;;;;;;5033510;28;20315;-58
2023/07/14 03:59:33;;;;;;;15.07;4.75;;;;;;;;;;5033662;28;20326;-57
2023/07/14 04:01:59;;;;;;;14.35;3.58;;;;;;;;;;5033553;28;20446;-58
2023/07/14 04:04:24;;;;;;;11.02;3.85;;;;;;;;;;5034388;28;20025;-57
2023/07/14 04:06:49;;;;;;;19.90;5.28;;;;;;;;;;5032277;28;20029;-58
2023/07/14 04:09:15;;;;;;;13.63;4.22;;;;;;;;;;5034412;28;20036;-57
2023/07/14 04:11:40;;;;;;;17.40;4.93;;;;;;;;;;5015511;28;20029;-58
2023/07/14 04:14:06;;;;;;;14.43;4.20;;;;;;;;;;5035060;28;20025;-58
2023/07/14 04:16:31;;;;;;;12.02;4.18;;;;;;;;;;5033754;28;20954;-59
2023/07/14 04:18:56;;;;;;;15.10;4.22;;;;;;;;;;5022573;28;20021;-59
2023/07/14 04:21:24;;;;;;;16.33;4.83;;;;;;;;;;5032530;28;20560;-58
2023/07/14 04:23:51;;;;;;;19.13;5.15;;;;;;;;;;5032266;28;20317;-58
2023/07/14 04:26:16;;;;;;;12.48;4.13;;;;;;;;;;5033402;28;20025;-57
2023/07/14 04:28:41;;;;;;;21.73;11.43;;;;;;;;;;5032961;28;20087;-57
2023/07/14 04:31:07;;;;;;;11.83;3.77;;;;;;;;;;5032428;28;20479;-57
2023/07/14 04:33:32;;;;;;;12.25;4.10;;;;;;;;;;5034180;28;20640;-58
2023/07/14 04:35:58;;;;;;;15.38;7.25;;;;;;;;;;5032275;28;20528;-57
2023/07/14 04:38:24;;;;;;;36.15;28.88;;;;;;;;;;5033726;28;20028;-57
2023/07/14 04:40:49;;;;;;;14.73;4.30;;;;;;;;;;5031756;28;20037;-56
2023/07/14 04:43:15;;;;;;;25.98;18.67;;;;;;;;;;5034277;28;20052;-58
2023/07/14 04:45:41;;;;;;;44.58;39.83;;;;;;;;;;5031743;28;20407;-58
2023/07/14 04:48:07;;;;;;;174.85;158.27;;;;;;;;;;5033569;28;20029;-58
2023/07/14 04:50:33;;;;;;;139.48;125.45;;;;;;;;;;5032932;28;20029;-58
2023/07/14 04:52:59;;;;;;;75.03;66.95;;;;;;;;;;5032603;28;20009;-58
2023/07/14 04:55:25;;;;;;;333.25;304.45;;;;;;;;;;5033568;28;20025;-59
2023/07/14 04:57:50;;;;;;;313.83;286.83;;;;;;;;;;5032973;28;20036;-58
2023/07/14 05:00:18;;;;;;;10.07;3.73;;;;;;;;;;5031978;28;20018;-59
2023/07/14 05:02:43;;;;;;;52.25;42.13;;;;;;;;;;5032775;28;20515;-58
2023/07/14 05:05:10;;;;;;;11.30;5.28;;;;;;;;;;5033460;28;20023;-57
2023/07/14 05:07:35;;;;;;;258.35;235.73;;;;;;;;;;5033098;28;20017;-56
2023/07/14 05:10:01;;;;;;;94.85;85.90;;;;;;;;;;5032280;28;20021;-59
2023/07/14 05:12:26;;;;;;;64.70;40.60;;;;;;;;;;5015187;28;20059;-56
2023/07/14 05:14:51;;;;;;;198.10;175.57;;;;;;;;;;5032222;28;20744;-59
2023/07/14 05:17:17;;;;;;;57.20;51.83;;;;;;;;;;5029797;28;20632;-59
2023/07/14 05:19:42;;;;;;;320.55;293.13;;;;;;;;;;5031440;28;20024;-58
2023/07/14 05:22:07;;;;;;;263.73;238.10;;;;;;;;;;5006938;28;20044;-59
2023/07/14 05:24:32;;;;;;;401.80;368.33;;;;;;;;;;5033142;28;20530;-59
2023/07/14 05:26:59;;;;;;;113.68;100.45;;;;;;;;;;5028564;28;20946;-58
2023/07/14 05:29:24;;;;;;;199.90;182.38;;;;;;;;;;5033300;28;20051;-58
2023/07/14 05:31:50;;;;;;;360.93;326.87;;;;;;;;;;5012928;28;20044;-56
2023/07/14 05:34:15;;;;;;;421.10;387.50;;;;;;;;;;5033703;28;20617;-59
2023/07/14 05:36:40;;;;;;;397.13;362.13;;;;;;;;;;5031318;28;20268;-60
2023/07/14 05:39:06;;;;;;;267.13;245.15;;;;;;;;;;5033145;28;20270;-58
2023/07/14 05:41:31;;;;;;;141.45;107.22;;;;;;;;;;5032817;28;20025;-60
2023/07/14 05:43:57;;;;;;;205.40;185.83;;;;;;;;;;5034796;28;20390;-59
2023/07/14 05:46:22;;;;;;;401.20;364.63;;;;;;;;;;5037318;28;20326;-60
2023/07/14 05:48:47;;;;;;;421.13;383.47;;;;;;;;;;5036133;28;20039;-59
2023/07/14 05:51:13;;;;;;;387.43;353.10;;;;;;;;;;5036287;28;20275;-61
2023/07/14 05:53:38;;;;;;;278.20;254.60;;;;;;;;;;5037534;28;20086;-60
2023/07/14 05:56:04;;;;;;;354.17;325.00;;;;;;;;;;5035375;28;20467;-58
2023/07/14 05:58:29;;;;;;;250.55;230.55;;;;;;;;;;5037629;28;20307;-59
2023/07/14 06:00:55;;;;;;;379.70;344.65;;;;;;;;;;5035810;28;20049;-59
2023/07/14 06:03:20;;;;;;;290.92;269.00;;;;;;;;;;5037974;28;20013;-59
2023/07/14 06:05:46;;;;;;;282.75;259.83;;;;;;;;;;5035221;28;20095;-59
2023/07/14 06:08:11;;;;;;;336.27;304.35;;;;;;;;;;5037328;28;20021;-60
2023/07/14 06:10:37;;;;;;;325.33;296.90;;;;;;;;;;5036565;28;20048;-60
2023/07/14 06:13:02;;;;;;;330.77;302.88;;;;;;;;;;5035614;28;20282;-60
2023/07/14 06:15:28;;;;;;;401.48;365.58;;;;;;;;;;5017538;28;20024;-60
2023/07/14 06:17:53;;;;;;;282.97;259.73;;;;;;;;;;5035287;28;20021;-58
2023/07/14 06:20:19;;;;;;;281.52;259.08;;;;;;;;;;5036053;28;20267;-59
2023/07/14 06:22:44;;;;;;;314.52;290.27;;;;;;;;;;5016527;28;20029;-60
2023/07/14 06:25:10;;;;;;;335.27;309.47;;;;;;;;;;5025046;28;20794;-59
2023/07/14 06:27:35;;;;;;;346.40;319.03;;;;;;;;;;5035456;28;20282;-60
2023/07/14 06:30:01;;;;;;;336.77;309.83;;;;;;;;;;5035045;28;20251;-60
2023/07/14 06:32:26;;;;;;;323.27;296.52;;;;;;;;;;5036184;28;20795;-60
2023/07/14 06:34:51;;;;;;;387.70;356.45;;;;;;;;;;5035117;28;20115;-59
2023/07/14 06:37:17;;;;;;;323.08;296.13;;;;;;;;;;5036514;28;20462;-60
2023/07/14 06:39:42;;;;;;;324.52;297.75;;;;;;;;;;5036203;28;20459;-59
2023/07/14 06:42:07;;;;;;;321.52;294.52;;;;;;;;;;5034335;28;20045;-58
2023/07/14 06:44:33;;;;;;;340.48;314.50;;;;;;;;;;5036115;28;20118;-59
2023/07/14 06:46:58;;;;;;;318.80;292.27;;;;;;;;;;5033685;28;20041;-60
2023/07/14 06:49:23;;;;;;;337.33;311.73;;;;;;;;;;5035396;28;20414;-59
2023/07/14 06:51:49;;;;;;;334.67;309.73;;;;;;;;;;5034272;28;20118;-60
2023/07/14 06:54:14;;;;;;;301.27;276.98;;;;;;;;;;5035921;28;20259;-59
2023/07/14 06:56:39;;;;;;;330.67;305.27;;;;;;;;;;5012717;28;20524;-60
2023/07/14 06:59:04;;;;;;;380.00;350.23;;;;;;;;;;5035343;28;20305;-58
2023/07/14 07:01:30;;;;;;;327.37;301.43;;;;;;;;;;5032938;28;20037;-58
2023/07/14 07:03:55;;;;;;;478.30;436.97;;;;;;;;;;5034830;28;20322;-60
2023/07/14 07:06:20;;;;;;;613.40;555.73;;;;;;;;;;5039163;28;20040;-60
2023/07/14 07:08:46;;;;;;;329.30;302.43;;;;;;;;;;5038712;28;20017;-59
2023/07/14 07:11:12;;;;;;;399.63;368.63;;;;;;;;;;5039050;28;20028;-60
2023/07/14 07:13:37;;;;;;;301.63;276.85;;;;;;;;;;5037419;28;20025;-61
2023/07/14 07:16:03;;;;;;;341.70;311.60;;;;;;;;;;5037079;28;20032;-61
2023/07/14 07:18:28;;;;;;;267.55;245.05;;;;;;;;;;5039314;28;20045;-60
2023/07/14 07:20:54;;;;;;;310.05;285.58;;;;;;;;;;5037794;28;20112;-61
2023/07/14 07:23:19;;;;;;;335.98;309.67;;;;;;;;;;5039232;28;20021;-59
2023/07/14 07:25:49;;;;;;;286.58;262.73;;;;;;;;;;5038413;28;20033;-60
2023/07/14 07:28:15;;;;;;;299.70;275.88;;;;;;;;;;5040157;28;20017;-60
2023/07/14 07:30:40;;;;;;;326.40;299.37;;;;;;;;;;5038792;28;20026;-60
2023/07/14 07:33:05;;;;;;;256.10;235.47;;;;;;;;;;5037798;28;20112;-61
2023/07/14 07:35:30;;;;;;;284.93;261.80;;;;;;;;;;5038786;28;20273;-60
2023/07/14 07:37:56;;;;;;;264.27;242.43;;;;;;;;;;5038060;28;20328;-59
2023/07/14 07:40:21;;;;;;;343.13;316.43;;;;;;;;;;5038904;28;20113;-60
2023/07/14 07:42:46;;;;;;;268.03;246.03;;;;;;;;;;5036511;28;20263;-60
2023/07/14 07:45:12;;;;;;;311.92;283.27;;;;;;;;;;5038343;28;20316;-60
2023/07/14 07:47:37;;;;;;;302.00;278.10;;;;;;;;;;5035687;28;20040;-60
2023/07/14 07:50:03;;;;;;;325.00;298.13;;;;;;;;;;5036774;28;20172;-60
2023/07/14 07:52:28;;;;;;;524.47;474.98;;;;;;;;;;5037599;28;20105;-60
2023/07/14 07:54:53;;;;;;;321.85;293.65;;;;;;;;;;5034142;28;20028;-61
2023/07/14 07:57:19;;;;;;;531.90;478.43;;;;;;;;;;5036196;28;20436;-60
2023/07/14 07:59:44;;;;;;;386.05;354.52;;;;;;;;;;5036912;28;20264;-62
2023/07/14 08:02:13;;;;;;;436.65;398.10;;;;;;;;;;5035599;28;20119;-58
2023/07/14 08:04:38;;;;;;;285.38;262.48;;;;;;;;;;5038042;28;20126;-60
2023/07/14 08:07:08;;;;;;;312.10;286.37;;;;;;;;;;5014833;28;20504;-60
2023/07/14 08:09:34;;;;;;;461.15;406.98;;;;;;;;;;5037767;28;20219;-60
2023/07/14 08:11:59;;;;;;;513.05;457.23;;;;;;;;;;5035440;28;20036;-60
2023/07/14 08:14:24;;;;;;;453.40;354.70;;;;;;;;;;5038428;28;20036;-61
2023/07/14 08:16:49;;;;;;;432.17;387.27;;;;;;;;;;5035606;28;20036;-60
2023/07/14 08:19:15;;;;;;;358.80;328.07;;;;;;;;;;5038325;28;20383;-61
2023/07/14 08:21:41;;;;;;;479.60;441.00;;;;;;;;;;5037649;28;20037;-60
2023/07/14 08:24:06;;;;;;;458.00;412.73;;;;;;;;;;5036964;28;20037;-61
2023/07/14 08:26:32;;;;;;;482.02;437.10;;;;;;;;;;5036872;28;20018;-61
2023/07/14 08:28:58;;;;;;;456.08;416.98;;;;;;;;;;5035960;28;20052;-60
2023/07/14 08:31:23;;;;;;;374.95;341.77;;;;;;;;;;5017004;28;20121;-60
2023/07/14 08:33:50;;;;;;;433.90;394.30;;;;;;;;;;5038291;28;20119;-60
2023/07/14 08:36:15;;;;;;;280.75;258.35;;;;;;;;;;5036645;28;20340;-60
2023/07/14 08:38:40;;;;;;;268.10;245.63;;;;;;;;;;5037708;28;20471;-59
2023/07/14 08:41:09;;;;;;;305.02;280.85;;;;;;;;;;5035388;28;20415;-59
2023/07/14 08:43:37;;;;;;;487.65;236.38;;;;;;;;;;5036914;28;20657;-60
2023/07/14 08:46:25;;;;;;;338.73;310.08;;;;;;;;;;5036146;28;20084;-59
2023/07/14 08:49:00;;;;;;;281.60;257.48;;;;;;;;;;5024818;28;20041;-58
2023/07/14 08:51:37;;;;;;;193.18;176.98;;;;;;;;;;5037242;28;20037;-58
2023/07/14 08:54:04;;;;;;;728.85;521.60;;;;;;;;;;5034897;28;20024;-59
2023/07/14 08:56:31;;;;;;;534.72;481.20;;;;;;;;;;5036681;28;20768;-61
2023/07/14 08:58:57;;;;;;;320.85;292.40;;;;;;;;;;5035238;28;20510;-61
2023/07/14 09:01:48;;;;;;;532.15;479.85;;;;;;;;;;5036414;28;20029;-60
2023/07/14 09:04:18;;;;;;;658.70;441.23;;;;;;;;;;5005687;28;20088;-58
2023/07/14 09:06:44;;;;;;;338.17;308.33;;;;;;;;;;5036045;28;20167;-60
2023/07/14 09:09:29;;;;;;;370.48;335.00;;;;;;;;;;5036024;28;20013;-60
2023/07/14 09:12:13;;;;;;;424.70;381.40;;;;;;;;;;5036200;28;20067;-59
2023/07/14 09:14:44;;;;;;;250.02;227.60;;;;;;;;;;5037923;28;20029;-60
2023/07/14 09:17:09;;;;;;;;;;;;;;;;;;5034834;28;20029;-60
2023/07/14 09:19:55;;;;;;;423.42;385.55;;;;;;;;;;5036174;28;19913;-60
2023/07/14 09:22:36;;;;;;;281.88;252.75;;;;;;;;;;5036014;28;20449;-61
2023/07/14 09:25:08;;;;;;;384.25;347.33;;;;;;;;;;5034485;28;20486;-61
2023/07/14 09:27:33;;;;;;;375.00;338.00;;;;;;;;;;5035668;28;20430;-60
2023/07/14 09:29:59;;;;;;;453.73;408.23;;;;;;;;;;5035191;28;20024;-59
2023/07/14 09:32:25;;;;;;;366.60;336.90;;;;;;;;;;5037126;28;20358;-60
2023/07/14 09:34:58;;;;;;;410.60;376.37;;;;;;;;;;5036474;28;20016;-59
2023/07/14 09:37:31;;;;;;;406.45;370.30;;;;;;;;;;5035634;28;20569;-60
2023/07/14 09:40:02;;;;;;;393.90;357.95;;;;;;;;;;5035308;28;20498;-60
2023/07/14 09:42:32;;;;;;;376.73;344.60;;;;;;;;;;5017410;28;20037;-59
2023/07/14 09:45:00;;;;;;;409.35;374.42;;;;;;;;;;5035076;28;20047;-58
2023/07/14 09:47:25;;;;;;;383.40;351.80;;;;;;;;;;5036754;28;20037;-61
2023/07/14 09:49:57;;;;;;;375.93;343.20;;;;;;;;;;5037849;28;20021;-59
2023/07/14 09:52:23;;;;;;;299.52;275.55;;;;;;;;;;5035973;28;20779;-60
2023/07/14 09:54:50;;;;;;;445.17;402.38;;;;;;;;;;5036065;28;20521;-60
2023/07/14 09:57:16;;;;;;;242.75;222.63;;;;;;;;;;5035777;28;20037;-59
2023/07/14 09:59:54;;;;;;;337.27;303.30;;;;;;;;;;5036460;28;20017;-59
2023/07/14 10:02:24;;;;;;;383.98;346.83;;;;;;;;;;5036415;28;20040;-57
2023/07/14 10:04:50;;;;;;;356.38;325.52;;;;;;;;;;5037264;28;20029;-57
2023/07/14 10:07:35;;;;;;;353.23;321.10;;;;;;;;;;5032948;28;20072;-61
2023/07/14 10:10:09;;;;;;;561.35;505.88;;;;;;;;;;5034973;28;20100;-60
2023/07/14 10:12:44;;;;;;;379.17;343.48;;;;;;;;;;5036288;28;20052;-59
2023/07/14 10:15:32;;;;;;;434.52;391.90;;;;;;;;;;5016779;28;20021;-58
2023/07/14 10:18:05;;;;;;;408.73;373.75;;;;;;;;;;5034856;28;20177;-58
2023/07/14 10:20:31;;;;;;;259.85;218.25;;;;;;;;;;5034809;28;20314;-58
2023/07/14 10:22:58;;;;;;;611.13;493.08;;;;;;;;;;5035444;28;20060;-57
2023/07/14 10:25:24;;;;;;;509.77;463.23;;;;;;;;;;5036313;28;20013;-58
2023/07/14 10:27:56;;;;;;;325.60;297.02;;;;;;;;;;5035766;28;20043;-57
2023/07/14 10:30:41;;;;;;;325.90;297.27;;;;;;;;;;5038227;28;20426;-58
2023/07/14 10:33:12;;;;;;;338.13;307.42;;;;;;;;;;5038506;28;20461;-59
2023/07/14 10:35:37;;;;;;;;;;;;;;;;;;5039684;28;20033;-58
2023/07/14 10:38:19;;;;;;;617.45;433.25;;;;;;;;;;5037121;28;19974;-59
2023/07/14 10:41:11;;;;;;;516.63;415.75;;;;;;;;;;5039160;28;20049;-59
2023/07/14 10:43:41;;;;;;;482.25;361.90;;;;;;;;;;5034897;28;20033;-58
2023/07/14 10:46:10;;;;;;;653.70;522.33;;;;;;;;;;5036936;28;20112;-58
2023/07/14 10:48:40;;;;;;;656.97;396.73;;;;;;;;;;5039435;28;20446;-59
2023/07/14 10:51:05;;;;;;;408.63;364.50;;;;;;;;;;5037459;28;20029;-58
2023/07/14 10:53:41;;;;;;;474.37;271.27;;;;;;;;;;5040105;28;20381;-59
2023/07/14 10:56:13;;;;;;;447.73;402.60;;;;;;;;;;5037030;28;20036;-58
2023/07/14 10:58:46;;;;;;;380.98;344.80;;;;;;;;;;5021750;28;20028;-59
2023/07/14 11:01:16;;;;;;;520.00;463.25;;;;;;;;;;5037837;28;20180;-59
2023/07/14 11:03:48;;;;;;;427.95;389.58;;;;;;;;;;5039950;28;20537;-59
2023/07/14 11:06:15;;;;;;;247.52;224.27;;;;;;;;;;5036616;28;20017;-59
2023/07/14 11:08:41;;;;;;;617.47;553.88;;;;;;;;;;5038446;28;20024;-60
2023/07/14 11:11:22;;;;;;;301.48;274.23;;;;;;;;;;5037048;28;20094;-59
2023/07/14 11:14:06;;;;;;;340.52;312.67;;;;;;;;;;5040392;28;20048;-59
2023/07/14 11:16:35;;;;;;;296.38;270.90;;;;;;;;;;5038396;28;20041;-59
2023/07/14 11:19:06;;;;;;;371.25;335.45;;;;;;;;;;5039163;28;20032;-58
2023/07/14 11:21:31;;;;;;;;;;;;;;;;;;5039718;28;20082;-59
2023/07/14 11:24:16;;;;;;;869.10;559.50;;;;;;;;;;5039786;28;19920;-59
2023/07/14 11:26:44;;;;;;;414.60;373.52;;;;;;;;;;5038771;28;20089;-58
2023/07/14 11:29:35;;;;;;;420.08;383.65;;;;;;;;;;5039446;28;20553;-59
2023/07/14 11:32:01;;;;;;;581.42;528.83;;;;;;;;;;5030850;28;20572;-59
2023/07/14 11:34:27;;;;;;;414.48;370.55;;;;;;;;;;5038977;28;20029;-58
2023/07/14 11:36:55;;;;;;;253.25;231.13;;;;;;;;;;5038821;28;20033;-59
2023/07/14 11:39:29;;;;;;;282.67;256.58;;;;;;;;;;5037824;28;20457;-58
2023/07/14 11:41:55;;;;;;;545.20;492.95;;;;;;;;;;5035761;28;20309;-59
2023/07/14 11:44:21;;;;;;;261.47;238.80;;;;;;;;;;5037863;28;20037;-60
2023/07/14 11:46:49;;;;;;;681.22;487.65;;;;;;;;;;5038522;28;20665;-59
2023/07/14 11:49:46;;;;;;;627.22;562.58;;;;;;;;;;5036727;28;20033;-58
2023/07/14 11:52:19;;;;;;;293.90;266.45;;;;;;;;;;4992070;28;20055;-59
2023/07/14 11:54:56;;;;;;;250.90;227.55;;;;;;;;;;5038652;28;20064;-59
2023/07/14 11:57:22;;;;;;;1327.30;676.95;;;;;;;;;;5036288;28;20861;-58
2023/07/14 11:59:56;;;;;;;669.00;420.30;;;;;;;;;;5038544;28;20043;-59
2023/07/14 12:02:24;;;;;;;440.33;377.00;;;;;;;;;;5036662;28;20559;-59
2023/07/14 12:04:57;;;;;;;259.00;235.45;;;;;;;;;;5037991;28;20611;-59
2023/07/14 12:07:24;;;;;;;161.05;147.18;;;;;;;;;;5034661;28;20410;-57
2023/07/14 12:10:10;;;;;;;182.13;166.55;;;;;;;;;;5038041;28;20052;-58
2023/07/14 12:12:37;;;;;;;880.20;529.13;;;;;;;;;;5038194;28;20037;-58
2023/07/14 12:15:22;;;;;;;535.72;464.83;;;;;;;;;;5037332;28;20195;-57
2023/07/14 12:17:47;;;;;;;601.70;459.67;;;;;;;;;;5036745;28;20729;-58
2023/07/14 12:20:14;;;;;;;292.05;263.30;;;;;;;;;;5036379;28;20498;-58
2023/07/14 12:22:43;;;;;;;413.50;353.90;;;;;;;;;;5037383;28;20080;-59
2023/07/14 12:25:13;;;;;;;386.85;343.40;;;;;;;;;;5036809;28;20083;-61
2023/07/14 12:27:41;;;;;;;293.77;268.33;;;;;;;;;;5035705;28;20010;-58
2023/07/14 12:30:22;;;;;;;376.05;342.58;;;;;;;;;;5035128;28;20274;-59
2023/07/14 12:32:47;;;;;;;227.40;205.38;;;;;;;;;;5036905;28;20051;-59
2023/07/14 12:35:16;;;;;;;192.40;174.75;;;;;;;;;;5035391;28;20118;-58
2023/07/14 12:37:42;;;;;;;277.85;251.68;;;;;;;;;;5035505;28;20399;-59
2023/07/14 12:40:14;;;;;;;248.82;223.65;;;;;;;;;;5035870;28;20101;-59
2023/07/14 12:42:43;;;;;;;190.20;173.20;;;;;;;;;;5036593;28;20048;-57
2023/07/14 12:45:11;;;;;;;198.73;180.73;;;;;;;;;;5035484;28;20390;-60
2023/07/14 12:47:39;;;;;;;221.95;200.23;;;;;;;;;;5037627;28;20478;-59
2023/07/14 12:50:04;;;;;;;320.55;292.45;;;;;;;;;;5036864;28;20172;-57
2023/07/14 12:52:32;;;;;;;354.52;316.65;;;;;;;;;;5037702;28;20028;-59
2023/07/14 12:55:00;;;;;;;180.25;163.65;;;;;;;;;;5039439;28;20526;-59
2023/07/14 12:57:25;;;;;;;322.95;290.27;;;;;;;;;;5036135;28;20036;-58
2023/07/14 12:59:51;;;;;;;194.82;175.48;;;;;;;;;;5039196;28;20036;-58
2023/07/14 13:02:16;;;;;;;293.80;266.95;;;;;;;;;;5036837;28;20061;-60
2023/07/14 13:04:42;;;;;;;324.02;293.83;;;;;;;;;;5038039;28;20090;-58
2023/07/14 13:07:13;;;;;;;423.07;381.90;;;;;;;;;;5035119;28;20029;-59
2023/07/14 13:09:38;;;;;;;204.43;186.75;;;;;;;;;;5037283;28;20256;-59
2023/07/14 13:12:04;;;;;;;315.90;288.27;;;;;;;;;;5036961;28;20036;-59
2023/07/14 13:14:44;;;;;;;1062.28;606.97;;;;;;;;;;5035767;28;20029;-59
2023/07/14 13:17:17;;;;;;;428.42;386.15;;;;;;;;;;5035346;28;20037;-59
2023/07/14 13:19:48;;;;;;;551.28;453.77;;;;;;;;;;5037592;28;20031;-58
2023/07/14 13:22:25;;;;;;;738.88;365.75;;;;;;;;;;5035660;28;20675;-59
2023/07/14 13:24:59;;;;;;;166.73;151.98;;;;;;;;;;5036584;28;20028;-59
2023/07/14 13:27:25;;;;;;;328.90;299.35;;;;;;;;;;5034972;28;20533;-59
2023/07/14 13:29:57;;;;;;;195.50;177.77;;;;;;;;;;5038035;28;20152;-59
2023/07/14 13:32:23;;;;;;;138.05;125.30;;;;;;;;;;5034420;28;20031;-59
2023/07/14 13:34:50;;;;;;;238.35;216.27;;;;;;;;;;5035605;28;20099;-59
2023/07/14 13:37:16;;;;;;;255.55;232.15;;;;;;;;;;5034281;28;20525;-58
2023/07/14 13:39:42;;;;;;;242.77;220.20;;;;;;;;;;5036405;28;20508;-58
2023/07/14 13:42:37;;;;;;;278.30;253.50;;;;;;;;;;5034346;28;20569;-58
2023/07/14 13:45:07;;;;;;;284.65;257.98;;;;;;;;;;5019617;28;20106;-58
2023/07/14 13:47:42;;;;;;;344.38;312.60;;;;;;;;;;5035563;28;20021;-60
2023/07/14 13:50:07;;;;;;;304.85;275.50;;;;;;;;;;5034966;28;20036;-59
2023/07/14 13:52:33;;;;;;;418.92;375.45;;;;;;;;;;5035451;28;20013;-59
2023/07/14 13:55:02;;;;;;;371.02;331.02;;;;;;;;;;5036270;28;20028;-59
2023/07/14 13:57:28;;;;;;;807.85;416.70;;;;;;;;;;5033633;28;20037;-59
2023/07/14 13:59:53;;;;;;;296.90;267.63;;;;;;;;;;5037666;28;20091;-58
2023/07/14 14:02:22;;;;;;;329.17;300.33;;;;;;;;;;5019405;28;20103;-59
2023/07/14 14:04:47;;;;;;;421.60;382.60;;;;;;;;;;5039112;28;20283;-59
2023/07/14 14:07:13;;;;;;;378.95;344.65;;;;;;;;;;5037947;28;20033;-59
2023/07/14 14:09:38;;;;;;;316.30;284.63;;;;;;;;;;5039553;28;20024;-60
2023/07/14 14:12:03;;;;;;;147.27;133.77;;;;;;;;;;5040128;28;20029;-59